Time;durP1;ratioP1;P1;durP2;ratioP2;P2;SDS_P1;SDS_P2;PMS_P1;PMS_P2;Temp;Humidity;BMP_temperature;BMP_pressure;BME280_temperature;BME280_humidity;BME280_pressure;Samples;Min_cycle;Max_cycle;Signal;HPM_P1;HPM_P2
2022/11/16 00:01:22;;;;;;;23.60;19.40;;;;;;;7.96;100.00;95883.82;105257;1298;22455;-80
2022/11/16 00:03:58;;;;;;;23.70;19.60;;;;;;;7.96;100.00;95882.98;105275;1303;22457;-80
2022/11/16 00:06:30;;;;;;;23.10;19.20;;;;;;;7.96;100.00;95884.71;104389;1288;1132339;-79
2022/11/16 00:11:55;;;;;;;23.00;18.00;;;;;;;7.99;100.00;95875.91;105264;1296;22528;-80
2022/11/16 00:14:31;;;;;;;22.70;18.50;;;;;;;8.00;100.00;95872.59;105297;1285;22477;-80
2022/11/16 00:17:03;;;;;;;23.60;18.80;;;;;;;8.00;100.00;95874.58;105238;1303;22680;-79
2022/11/16 00:19:34;;;;;;;23.90;18.80;;;;;;;8.01;100.00;95870.41;105242;1275;25115;-80
2022/11/16 00:22:06;;;;;;;22.40;17.40;;;;;;;8.02;100.00;95865.97;105221;1288;22487;-80
2022/11/16 00:24:39;;;;;;;21.60;16.70;;;;;;;8.03;99.98;95862.48;105275;1280;22471;-80
2022/11/16 00:27:11;;;;;;;20.60;17.20;;;;;;;8.04;99.98;95862.23;105187;1303;22467;-80
2022/11/16 00:29:42;;;;;;;19.70;16.90;;;;;;;8.04;99.99;95857.47;105235;1305;22516;-80
2022/11/16 00:32:13;;;;;;;21.00;17.60;;;;;;;8.03;99.98;95856.25;105245;1304;23026;-80
2022/11/16 00:34:44;;;;;;;20.80;16.30;;;;;;;8.02;100.00;95853.56;105239;1296;22508;-80
2022/11/16 00:37:18;;;;;;;18.50;15.70;;;;;;;8.00;100.00;95850.04;105204;1291;23659;-79
2022/11/16 00:39:49;;;;;;;20.80;16.90;;;;;;;7.98;100.00;95849.11;105286;1304;22602;-79
2022/11/16 00:42:20;;;;;;;20.40;17.50;;;;;;;7.98;100.00;95847.59;105279;1293;25247;-80
2022/11/16 00:44:51;;;;;;;18.50;15.40;;;;;;;7.99;100.00;95850.27;105272;1287;24959;-80
2022/11/16 00:47:22;;;;;;;21.50;16.70;;;;;;;7.99;100.00;95852.48;105183;1296;22699;-80
2022/11/16 00:49:54;;;;;;;20.60;16.90;;;;;;;7.99;100.00;95855.96;105230;1278;23465;-80
2022/11/16 00:52:26;;;;;;;21.30;17.10;;;;;;;8.02;100.00;95854.67;105291;1297;25199;-79
2022/11/16 00:54:57;;;;;;;20.60;17.00;;;;;;;8.03;100.00;95856.30;105234;1303;22458;-80
2022/11/16 00:57:28;;;;;;;21.90;16.90;;;;;;;8.05;100.00;95855.19;105222;1298;24090;-79
2022/11/16 00:59:59;;;;;;;18.70;16.10;;;;;;;8.05;100.00;95852.55;105265;1298;22472;-79
2022/11/16 01:02:31;;;;;;;19.60;15.60;;;;;;;8.03;100.00;95850.66;105273;1303;22450;-80
2022/11/16 01:05:02;;;;;;;19.70;16.20;;;;;;;8.01;100.00;95849.77;105270;1288;22474;-79
2022/11/16 01:07:34;;;;;;;19.20;15.90;;;;;;;8.01;100.00;95848.13;105256;1298;22477;-80
2022/11/16 01:10:07;;;;;;;20.10;15.70;;;;;;;8.01;99.99;95848.17;105214;1306;22470;-80
2022/11/16 01:12:38;;;;;;;20.00;16.00;;;;;;;8.03;100.00;95842.43;105249;1288;22455;-79
2022/11/16 01:15:11;;;;;;;18.10;15.00;;;;;;;8.04;100.00;95837.51;105275;1296;25239;-79
2022/11/16 01:17:43;;;;;;;18.40;14.30;;;;;;;8.06;99.92;95836.39;105230;1306;25220;-80
2022/11/16 01:20:18;;;;;;;15.70;12.70;;;;;;;8.06;99.98;95835.48;105247;1305;22507;-79
2022/11/16 01:22:49;;;;;;;16.70;13.70;;;;;;;8.05;99.96;95830.33;105272;1304;22471;-80
2022/11/16 01:25:23;;;;;;;14.50;11.70;;;;;;;8.06;99.96;95830.73;105224;1273;25287;-79
2022/11/16 01:27:54;;;;;;;15.20;11.80;;;;;;;8.05;99.98;95827.00;105194;1303;22473;-80
2022/11/16 01:30:25;;;;;;;18.10;14.50;;;;;;;8.03;100.00;95828.38;105279;1303;25242;-79
2022/11/16 01:32:57;;;;;;;19.90;15.10;;;;;;;8.03;100.00;95827.38;105286;1303;22955;-79
2022/11/16 01:35:28;;;;;;;18.50;15.70;;;;;;;8.02;99.96;95828.02;105285;1295;22682;-79
2022/11/16 01:37:59;;;;;;;19.80;15.60;;;;;;;8.01;99.89;95828.44;105235;1287;22953;-79
2022/11/16 01:40:30;;;;;;;19.00;15.00;;;;;;;7.98;99.84;95824.67;105241;1294;25214;-79
2022/11/16 01:43:02;;;;;;;20.30;15.70;;;;;;;7.95;99.89;95821.02;105267;1303;22928;-80
2022/11/16 01:45:40;;;;;;;20.70;16.20;;;;;;;7.91;99.93;95814.16;105246;1303;22636;-80
2022/11/16 01:48:14;;;;;;;22.10;17.60;;;;;;;7.86;99.99;95810.30;105219;1303;22467;-79
2022/11/16 01:50:46;;;;;;;23.30;18.70;;;;;;;7.79;100.00;95807.05;105245;1298;22466;-79
2022/11/16 01:53:18;;;;;;;27.10;20.20;;;;;;;7.74;100.00;95804.66;105259;1306;22465;-79
2022/11/16 01:55:50;;;;;;;28.10;22.30;;;;;;;7.70;100.00;95802.65;105231;1298;22481;-79
2022/11/16 01:58:25;;;;;;;30.90;23.50;;;;;;;7.62;100.00;95797.02;105211;1304;22476;-79
2022/11/16 02:00:56;;;;;;;32.40;25.10;;;;;;;7.55;100.00;95795.39;105235;1304;22479;-79
2022/11/16 02:03:29;;;;;;;30.90;24.00;;;;;;;7.53;100.00;95792.52;105261;1298;22482;-79
2022/11/16 02:06:16;;;;;;;30.30;24.60;;;;;;;7.53;100.00;95788.73;105270;1298;22472;-79
2022/11/16 02:12:09;;;;;;;30.30;25.10;;;;;;;7.43;100.00;95790.33;105238;1277;25195;-79
2022/11/16 02:14:55;;;;;;;28.90;23.10;;;;;;;7.42;100.00;95789.83;105261;1296;22534;-79
2022/11/16 02:17:45;;;;;;;28.90;24.00;;;;;;;7.44;100.00;95790.54;105220;1294;22463;-79
2022/11/16 02:20:40;;;;;;;31.10;24.60;;;;;;;7.50;100.00;95786.76;105260;1306;24267;-79
2022/11/16 02:23:41;;;;;;;27.40;23.60;;;;;;;7.55;100.00;95781.16;105262;1304;24254;-79
2022/11/16 02:26:34;;;;;;;24.90;20.20;;;;;;;7.58;100.00;95777.70;105169;1294;22516;-78
2022/11/16 02:29:24;;;;;;;26.00;21.80;;;;;;;7.60;100.00;95774.20;105259;1296;25287;-80
2022/11/16 02:32:04;;;;;;;28.40;23.70;;;;;;;7.61;100.00;95771.30;105286;1303;22531;-79
2022/11/16 02:34:41;;;;;;;30.80;25.60;;;;;;;7.61;100.00;95767.35;105252;1304;25920;-79
2022/11/16 02:37:20;;;;;;;36.40;29.50;;;;;;;7.62;100.00;95766.70;105221;1281;25450;-79
2022/11/16 02:39:56;;;;;;;28.10;22.10;;;;;;;7.61;100.00;95765.92;105241;1291;25483;-79
2022/11/16 02:42:32;;;;;;;38.10;31.10;;;;;;;7.59;100.00;95765.65;105229;1306;25467;-80
2022/11/16 02:45:06;;;;;;;37.90;31.00;;;;;;;7.55;100.00;95763.12;105233;1304;22964;-79
2022/11/16 02:47:40;;;;;;;36.60;31.10;;;;;;;7.54;100.00;95762.13;105252;1305;24240;-79
2022/11/16 02:50:16;;;;;;;39.20;31.90;;;;;;;7.54;100.00;95757.27;105263;1288;22851;-79
2022/11/16 02:52:48;;;;;;;42.70;33.90;;;;;;;7.55;100.00;95755.20;105262;1282;22488;-79
2022/11/16 02:55:19;;;;;;;38.70;32.90;;;;;;;7.57;100.00;95752.44;105234;1291;22485;-79
2022/11/16 02:57:57;;;;;;;36.90;30.70;;;;;;;7.58;100.00;95749.73;105246;1298;25326;-80
2022/11/16 03:00:33;;;;;;;35.10;28.30;;;;;;;7.57;100.00;95747.27;105246;1294;22505;-79
2022/11/16 03:03:16;;;;;;;34.00;28.60;;;;;;;7.48;100.00;95744.20;105253;1301;22457;-79
2022/11/16 03:05:52;;;;;;;39.80;30.30;;;;;;;7.37;100.00;95739.45;105262;1303;22484;-79
2022/11/16 03:08:28;;;;;;;37.50;30.80;;;;;;;7.31;100.00;95736.92;105208;1288;22462;-80
2022/11/16 03:14:00;;;;;;;37.90;30.10;;;;;;;7.26;100.00;95732.45;105284;1281;24187;-79
2022/11/16 03:16:36;;;;;;;43.10;33.30;;;;;;;7.23;100.00;95734.38;105221;1306;22557;-79
2022/11/16 03:19:12;;;;;;;41.70;32.80;;;;;;;7.21;100.00;95735.61;105254;1306;25582;-79
2022/11/16 03:21:48;;;;;;;40.20;32.30;;;;;;;7.22;100.00;95731.76;105239;1304;25204;-80
2022/11/16 03:24:20;;;;;;;40.70;32.50;;;;;;;7.25;100.00;95728.09;105234;1304;22453;-79
2022/11/16 03:26:56;;;;;;;39.50;31.40;;;;;;;7.27;100.00;95728.05;105209;1301;37168;-80
2022/11/16 03:29:35;;;;;;;38.70;30.50;;;;;;;7.29;100.00;95723.86;105249;1295;22467;-79
2022/11/16 03:32:15;;;;;;;33.70;27.90;;;;;;;7.30;100.00;95724.13;105215;1299;22511;-79
2022/11/16 03:34:55;;;;;;;36.00;29.40;;;;;;;7.25;100.00;95719.70;105269;1293;22465;-79
2022/11/16 03:37:28;;;;;;;23.60;19.70;;;;;;;7.22;100.00;95719.31;105272;1295;25602;-79
2022/11/16 03:40:01;;;;;;;36.50;29.20;;;;;;;7.19;100.00;95717.54;105264;1304;22502;-79
2022/11/16 03:42:33;;;;;;;37.30;31.30;;;;;;;7.16;100.00;95718.02;105300;1303;25536;-79
2022/11/16 03:45:05;;;;;;;41.00;32.40;;;;;;;7.13;100.00;95710.63;105246;1298;22468;-79
2022/11/16 03:47:39;;;;;;;39.70;31.70;;;;;;;7.12;100.00;95708.64;105235;1303;22971;-79
2022/11/16 03:50:11;;;;;;;36.70;32.20;;;;;;;7.16;100.00;95704.70;105248;1291;22487;-79
2022/11/16 03:52:43;;;;;;;38.40;32.40;;;;;;;7.20;100.00;95703.56;105282;1295;23051;-79
2022/11/16 03:55:14;;;;;;;39.10;32.50;;;;;;;7.22;100.00;95698.11;105243;1291;23315;-79
2022/11/16 03:57:46;;;;;;;39.60;33.20;;;;;;;7.23;100.00;95694.67;105206;1303;24247;-79
2022/11/16 04:00:17;;;;;;;40.00;33.30;;;;;;;7.24;100.00;95689.13;105249;1303;22459;-79
2022/11/16 04:02:48;;;;;;;42.80;33.60;;;;;;;7.25;100.00;95680.88;105252;1285;23782;-79
2022/11/16 04:25:14;;;;;;;37.50;30.30;;;;;;;7.42;100.00;95674.75;105234;1305;22476;-79
2022/11/16 04:39:01;;;;;;;39.70;31.60;;;;;;;7.29;100.00;95668.88;105266;1297;22459;-79
2022/11/16 04:44:22;;;;;;;39.80;31.70;;;;;;;7.23;100.00;95666.27;105273;1303;23828;-79
2022/11/16 04:47:09;;;;;;;37.20;31.40;;;;;;;7.23;100.00;95662.25;105194;1278;23829;-79
2022/11/16 04:49:40;;;;;;;39.10;31.50;;;;;;;7.26;100.00;95662.17;105259;1285;22541;-79
2022/11/16 04:52:11;;;;;;;40.90;32.80;;;;;;;7.27;100.00;95660.52;105252;1303;22485;-79
2022/11/16 04:54:42;;;;;;;37.90;31.30;;;;;;;7.27;100.00;95660.09;105265;1300;25473;-79
2022/11/16 04:57:16;;;;;;;37.60;31.90;;;;;;;7.30;100.00;95657.84;105201;1294;26406;-79
2022/11/16 04:59:48;;;;;;;38.80;31.70;;;;;;;7.34;100.00;95659.14;105267;1303;25727;-79
2022/11/16 05:02:19;;;;;;;35.70;29.80;;;;;;;7.35;100.00;95657.64;105259;1288;22469;-79
2022/11/16 05:04:50;;;;;;;35.80;30.10;;;;;;;7.34;100.00;95657.98;105271;1296;22488;-79
2022/11/16 05:07:22;;;;;;;53.40;36.20;;;;;;;7.31;100.00;95655.05;105230;1303;24227;-79
2022/11/16 05:09:54;;;;;;;89.40;47.70;;;;;;;7.29;100.00;95650.90;105281;1299;22656;-79
2022/11/16 05:12:29;;;;;;;54.30;37.30;;;;;;;7.32;100.00;95651.83;105286;1303;24209;-79
2022/11/16 05:15:00;;;;;;;80.90;50.50;;;;;;;7.36;100.00;95650.94;105253;1303;23292;-79
2022/11/16 05:17:32;;;;;;;46.40;35.50;;;;;;;7.39;100.00;95650.95;105243;1302;22951;-79
2022/11/16 05:22:59;;;;;;;48.40;39.70;;;;;;;7.42;100.00;95646.75;105275;1300;23823;-79
2022/11/16 05:25:31;;;;;;;48.00;37.80;;;;;;;7.43;100.00;95641.30;105268;1289;22483;-79
2022/11/16 05:28:02;;;;;;;41.40;33.70;;;;;;;7.46;100.00;95640.38;105194;1295;22885;-79
2022/11/16 05:30:33;;;;;;;37.70;31.80;;;;;;;7.45;100.00;95634.63;105254;1303;22466;-80
2022/11/16 05:33:07;;;;;;;37.40;30.50;;;;;;;7.46;100.00;95631.83;105270;1286;25056;-79
2022/11/16 05:35:38;;;;;;;35.60;29.60;;;;;;;7.46;100.00;95631.01;105267;1303;22545;-79
2022/11/16 05:38:09;;;;;;;38.60;30.30;;;;;;;7.47;100.00;95626.92;105217;1288;22561;-79
2022/11/16 05:40:43;;;;;;;35.50;30.10;;;;;;;7.49;100.00;95628.44;105246;1291;22530;-79
2022/11/16 05:43:15;;;;;;;37.50;29.50;;;;;;;7.50;100.00;95627.84;105240;1301;24402;-79
2022/11/16 05:45:48;;;;;;;34.60;29.60;;;;;;;7.51;100.00;95627.98;105253;1295;24231;-79
2022/11/16 05:48:19;;;;;;;36.10;28.60;;;;;;;7.51;100.00;95629.20;105222;1291;25544;-79
2022/11/16 05:50:51;;;;;;;37.40;28.80;;;;;;;7.52;100.00;95626.44;105253;1288;22475;-79
2022/11/16 05:53:22;;;;;;;34.60;28.30;;;;;;;7.53;100.00;95627.27;105266;1287;25200;-79
2022/11/16 05:55:56;;;;;;;33.90;28.30;;;;;;;7.54;100.00;95627.05;105247;1289;22479;-79
2022/11/16 05:58:27;;;;;;;39.00;31.40;;;;;;;7.55;100.00;95625.29;105226;1303;22472;-79
2022/11/16 06:01:01;;;;;;;36.30;30.80;;;;;;;7.55;100.00;95625.29;105251;1303;24198;-79
2022/11/16 06:03:34;;;;;;;37.60;31.00;;;;;;;7.54;100.00;95626.62;105278;1288;22466;-79
2022/11/16 06:06:07;;;;;;;37.40;29.80;;;;;;;7.54;100.00;95627.48;105291;1303;22519;-79
2022/11/16 06:08:38;;;;;;;34.00;28.90;;;;;;;7.55;100.00;95629.72;105322;1300;35230;-79
2022/11/16 06:11:11;;;;;;;37.40;29.50;;;;;;;7.55;100.00;95629.98;105278;1297;22478;-79
2022/11/16 06:13:44;;;;;;;35.40;30.50;;;;;;;7.56;100.00;95623.54;105239;1301;22771;-79
2022/11/16 06:16:16;;;;;;;35.20;30.00;;;;;;;7.57;100.00;95621.52;105265;1284;22466;-79
2022/11/16 06:18:49;;;;;;;37.10;31.10;;;;;;;7.58;100.00;95619.66;105268;1303;25217;-79
2022/11/16 06:21:21;;;;;;;36.20;30.10;;;;;;;7.59;100.00;95623.49;105318;1295;26543;-79
2022/11/16 06:23:53;;;;;;;35.60;29.70;;;;;;;7.60;100.00;95619.16;105249;1299;24254;-79
2022/11/16 06:26:24;;;;;;;34.20;28.50;;;;;;;7.60;100.00;95620.53;105239;1304;27094;-79
2022/11/16 06:28:56;;;;;;;37.00;31.20;;;;;;;7.60;100.00;95618.27;105233;1305;25932;-80
2022/11/16 06:31:30;;;;;;;39.70;30.80;;;;;;;7.59;100.00;95616.37;105255;1301;22505;-79
2022/11/16 06:34:02;;;;;;;35.70;31.10;;;;;;;7.57;100.00;95616.88;105287;1307;22479;-79
2022/11/16 06:36:33;;;;;;;37.50;30.60;;;;;;;7.58;100.00;95615.54;105187;1304;26226;-79
2022/11/16 06:39:04;;;;;;;38.60;31.40;;;;;;;7.58;100.00;95615.43;105267;1294;23947;-79
2022/11/16 06:41:36;;;;;;;36.10;31.00;;;;;;;7.52;100.00;95616.00;105273;1303;22471;-79
2022/11/16 06:44:08;;;;;;;36.90;31.20;;;;;;;7.44;100.00;95609.02;105292;1304;23313;-79
2022/11/16 06:46:40;;;;;;;39.70;30.90;;;;;;;7.39;100.00;95606.07;105212;1303;22472;-79
2022/11/16 06:49:11;;;;;;;40.30;34.00;;;;;;;7.34;100.00;95606.45;105258;1294;25354;-79
2022/11/16 06:51:42;;;;;;;40.50;32.30;;;;;;;7.29;100.00;95609.93;105243;1304;22526;-79
2022/11/16 06:54:13;;;;;;;42.90;34.10;;;;;;;7.26;100.00;95609.45;105263;1294;27854;-79
2022/11/16 06:56:45;;;;;;;43.60;34.70;;;;;;;7.24;100.00;95605.83;105238;1306;22613;-80
2022/11/16 06:59:17;;;;;;;45.70;35.40;;;;;;;7.22;100.00;95605.33;105286;1303;22486;-79
2022/11/16 07:01:51;;;;;;;44.00;35.00;;;;;;;7.19;100.00;95606.36;105217;1286;26509;-79
2022/11/16 07:04:24;;;;;;;41.90;35.90;;;;;;;7.17;100.00;95606.94;105260;1306;22895;-79
2022/11/16 07:06:55;;;;;;;48.90;37.20;;;;;;;7.18;100.00;95604.16;105223;1287;22462;-79
2022/11/16 07:09:27;;;;;;;45.10;38.00;;;;;;;7.21;100.00;95599.87;105256;1285;26643;-79
2022/11/16 07:11:59;;;;;;;60.10;38.40;;;;;;;7.20;100.00;95596.23;105256;1295;22655;-79
2022/11/16 07:14:30;;;;;;;51.20;36.50;;;;;;;7.16;100.00;95594.63;105293;1303;22980;-79
2022/11/16 07:17:02;;;;;;;53.40;38.80;;;;;;;7.13;100.00;95592.60;105205;1303;22455;-79
2022/11/16 07:19:35;;;;;;;84.10;37.60;;;;;;;7.12;100.00;95589.09;105265;1297;22477;-79
2022/11/16 07:22:07;;;;;;;59.20;35.50;;;;;;;7.11;100.00;95589.84;105224;1288;22552;-79
2022/11/16 07:24:38;;;;;;;90.50;39.60;;;;;;;7.07;100.00;95585.63;105247;1293;23013;-79
2022/11/16 07:27:10;;;;;;;87.30;38.40;;;;;;;7.04;100.00;95581.54;105207;1303;23886;-79
2022/11/16 07:29:42;;;;;;;72.10;40.40;;;;;;;7.02;100.00;95578.96;105271;1309;22465;-79
2022/11/16 07:32:13;;;;;;;70.70;41.50;;;;;;;7.02;100.00;95578.23;105250;1304;22750;-79
2022/11/16 07:34:47;;;;;;;62.80;44.10;;;;;;;7.01;100.00;95573.71;105240;1294;24234;-79
2022/11/16 07:37:18;;;;;;;56.50;42.00;;;;;;;7.03;100.00;95575.16;105202;1307;22476;-79
2022/11/16 07:39:50;;;;;;;54.90;40.90;;;;;;;7.05;100.00;95574.95;105246;1309;22469;-79
2022/11/16 07:42:21;;;;;;;53.80;41.40;;;;;;;7.06;100.00;95567.29;105224;1309;22471;-79
2022/11/16 07:44:52;;;;;;;56.20;42.50;;;;;;;7.08;100.00;95565.99;105270;1284;22470;-79
2022/11/16 07:47:26;;;;;;;56.50;41.20;;;;;;;7.13;100.00;95560.83;105196;1308;22465;-80
2022/11/16 07:49:57;;;;;;;54.80;41.50;;;;;;;7.18;100.00;95557.83;105237;1305;22467;-79
2022/11/16 07:52:29;;;;;;;57.70;42.00;;;;;;;7.21;100.00;95557.95;105279;1304;22910;-79
2022/11/16 07:55:00;;;;;;;60.10;41.20;;;;;;;7.26;100.00;95560.52;105251;1291;22445;-79
2022/11/16 07:57:31;;;;;;;60.00;42.40;;;;;;;7.30;100.00;95559.50;105212;1304;22698;-79
2022/11/16 08:00:04;;;;;;;57.10;41.90;;;;;;;7.34;100.00;95560.05;105246;1309;22677;-79
2022/11/16 08:02:35;;;;;;;56.80;42.40;;;;;;;7.38;100.00;95562.63;105283;1304;22496;-80
2022/11/16 08:05:07;;;;;;;61.10;44.00;;;;;;;7.43;100.00;95558.71;105273;1290;22479;-79
2022/11/16 08:07:39;;;;;;;52.90;39.80;;;;;;;7.48;100.00;95561.20;105221;1288;26105;-79
2022/11/16 08:10:11;;;;;;;55.60;40.00;;;;;;;7.51;100.00;95563.42;105274;1297;22531;-79
2022/11/16 08:12:42;;;;;;;52.30;38.80;;;;;;;7.52;100.00;95563.77;105281;1302;22478;-79
2022/11/16 08:15:19;;;;;;;56.10;41.00;;;;;;;7.52;100.00;95562.29;105274;1304;22465;-80
2022/11/16 08:17:50;;;;;;;54.10;39.50;;;;;;;7.50;100.00;95555.95;105226;1288;22481;-79
2022/11/16 08:20:22;;;;;;;59.10;43.50;;;;;;;7.47;100.00;95558.05;105244;1304;23967;-79
2022/11/16 08:22:58;;;;;;;57.70;40.40;;;;;;;7.45;100.00;95557.27;105259;1304;22658;-80
2022/11/16 08:25:29;;;;;;;59.90;40.20;;;;;;;7.43;100.00;95555.55;105227;1304;22471;-79
2022/11/16 08:28:00;;;;;;;60.80;42.30;;;;;;;7.40;100.00;95553.64;105218;1288;24048;-80
2022/11/16 08:30:32;;;;;;;65.90;43.60;;;;;;;7.43;100.00;95557.87;105247;1305;24254;-80
2022/11/16 08:33:03;;;;;;;63.00;43.70;;;;;;;7.47;100.00;95559.10;105259;1288;23774;-80
2022/11/16 08:35:35;;;;;;;62.10;42.00;;;;;;;7.50;100.00;95560.39;105230;1288;22460;-79
2022/11/16 08:38:06;;;;;;;68.10;45.50;;;;;;;7.44;100.00;95555.80;105216;1304;24644;-79
2022/11/16 08:40:38;;;;;;;62.60;44.50;;;;;;;7.41;100.00;95560.23;105269;1287;22468;-80
2022/11/16 08:43:11;;;;;;;64.60;44.40;;;;;;;7.41;100.00;95562.54;105255;1288;22482;-80
2022/11/16 08:45:48;;;;;;;67.10;45.10;;;;;;;7.44;100.00;95563.28;105282;1291;22484;-80
2022/11/16 08:48:20;;;;;;;108.60;43.70;;;;;;;7.48;100.00;95567.42;105213;1298;22473;-80
2022/11/16 08:50:51;;;;;;;122.80;47.20;;;;;;;7.45;100.00;95566.65;105263;1305;24370;-80
2022/11/16 08:53:23;;;;;;;168.00;47.50;;;;;;;7.40;100.00;95565.14;105243;1306;22795;-80
2022/11/16 08:55:55;;;;;;;116.70;48.70;;;;;;;7.31;100.00;95565.41;105229;1298;22607;-80
2022/11/16 08:58:26;;;;;;;137.80;44.80;;;;;;;7.25;100.00;95562.32;105208;1304;23151;-80
2022/11/16 09:00:57;;;;;;;106.90;42.00;;;;;;;7.15;100.00;95566.17;105287;1292;22466;-80
2022/11/16 09:03:29;;;;;;;121.70;44.50;;;;;;;7.04;100.00;95570.52;105263;1286;26744;-80
2022/11/16 09:06:01;;;;;;;99.20;46.00;;;;;;;7.01;100.00;95573.70;105251;1296;22486;-80
2022/11/16 09:08:33;;;;;;;143.40;50.70;;;;;;;7.02;100.00;95577.97;105193;1287;24258;-80
2022/11/16 09:11:08;;;;;;;132.20;48.50;;;;;;;7.01;100.00;95575.50;105255;1304;25513;-80
2022/11/16 09:13:39;;;;;;;137.20;52.20;;;;;;;6.95;100.00;95571.05;105279;1297;22477;-80
2022/11/16 09:16:14;;;;;;;129.10;54.50;;;;;;;6.86;100.00;95569.70;105249;1305;22491;-80
2022/11/16 09:18:46;;;;;;;150.60;52.20;;;;;;;6.86;100.00;95570.98;105222;1304;22496;-80
2022/11/16 09:21:23;;;;;;;137.30;57.30;;;;;;;6.87;100.00;95571.54;105261;1294;22512;-80
2022/11/16 09:23:56;;;;;;;148.90;56.70;;;;;;;6.86;100.00;95571.92;105226;1282;26693;-80
2022/11/16 09:26:27;;;;;;;126.30;58.50;;;;;;;6.80;100.00;95568.20;105204;1294;23984;-80
2022/11/16 09:29:02;;;;;;;129.00;55.80;;;;;;;6.71;100.00;95565.55;105240;1297;22483;-80
2022/11/16 09:31:36;;;;;;;114.80;56.10;;;;;;;6.61;100.00;95564.70;105253;1305;22501;-80
2022/11/16 09:34:08;;;;;;;124.60;56.50;;;;;;;6.50;100.00;95564.06;105229;1295;22473;-80
2022/11/16 09:36:39;;;;;;;107.90;55.20;;;;;;;6.40;100.00;95560.41;105215;1306;22524;-80
2022/11/16 09:39:12;;;;;;;160.50;57.70;;;;;;;6.32;100.00;95556.16;105282;1288;23260;-80
2022/11/16 09:42:07;;;;;;;154.40;62.10;;;;;;;6.30;100.00;95551.65;105253;1306;22566;-80
2022/11/16 09:44:53;;;;;;;130.60;58.70;;;;;;;6.25;100.00;95544.38;105244;1304;23948;-80
2022/11/16 09:47:33;;;;;;;141.20;59.60;;;;;;;6.20;100.00;95542.16;105216;1298;24715;-80
2022/11/16 09:50:08;;;;;;;133.00;53.60;;;;;;;6.16;100.00;95534.40;105262;1304;22719;-80
2022/11/16 09:52:43;;;;;;;140.00;56.50;;;;;;;6.15;100.00;95534.09;105242;1304;22469;-80
2022/11/16 09:55:26;;;;;;;104.60;54.70;;;;;;;6.13;100.00;95533.95;105271;1287;22451;-80
2022/11/16 09:58:00;;;;;;;100.70;55.30;;;;;;;6.09;100.00;95527.36;105233;1305;22602;-79
2022/11/16 10:00:33;;;;;;;91.90;53.90;;;;;;;6.13;100.00;95525.33;105260;1306;22512;-80
2022/11/16 10:03:12;;;;;;;131.80;53.80;;;;;;;6.21;100.00;95519.15;105259;1292;26618;-80
2022/11/16 10:05:49;;;;;;;101.40;51.70;;;;;;;6.27;100.00;95512.47;105269;1288;22568;-80
2022/11/16 10:08:27;;;;;;;101.90;48.50;;;;;;;6.30;100.00;95505.16;105172;1288;22550;-80
2022/11/16 10:11:09;;;;;;;135.80;50.00;;;;;;;6.30;100.00;95498.01;105231;1298;22987;-80
2022/11/16 10:13:50;;;;;;;89.40;47.10;;;;;;;6.33;100.00;95498.30;105196;1295;22478;-79
2022/11/16 10:16:30;;;;;;;93.20;44.00;;;;;;;6.34;100.00;95495.24;105211;1304;22474;-79
2022/11/16 10:19:14;;;;;;;84.80;43.00;;;;;;;6.29;100.00;95495.96;105163;1305;22609;-79
2022/11/16 10:21:58;;;;;;;87.20;42.20;;;;;;;6.27;100.00;95499.10;105216;1283;24188;-79
2022/11/16 10:24:36;;;;;;;77.70;39.70;;;;;;;6.28;100.00;95497.71;105253;1298;22605;-79
2022/11/16 10:27:27;;;;;;;78.40;38.70;;;;;;;6.24;100.00;95498.55;105263;1285;24282;-79
2022/11/16 10:30:09;;;;;;;59.10;35.40;;;;;;;6.20;100.00;95494.12;105257;1303;24065;-79
2022/11/16 10:32:50;;;;;;;66.60;37.10;;;;;;;6.16;100.00;95496.13;105287;1302;22482;-79
2022/11/16 10:35:29;;;;;;;79.10;37.80;;;;;;;6.14;100.00;95495.16;105258;1304;23807;-79
2022/11/16 10:38:03;;;;;;;74.70;31.10;;;;;;;6.16;100.00;95493.02;105206;1304;22963;-79
2022/11/16 10:40:38;;;;;;;60.10;35.60;;;;;;;6.13;100.00;95490.59;105260;1288;24782;-79
2022/11/16 10:43:17;;;;;;;60.70;35.80;;;;;;;6.14;100.00;95484.37;105265;1305;24201;-79
2022/11/16 10:45:54;;;;;;;68.80;34.90;;;;;;;6.23;100.00;95485.14;105315;1304;22546;-79
2022/11/16 10:48:38;;;;;;;89.50;37.70;;;;;;;6.23;100.00;95485.98;105248;1281;22518;-78
2022/11/16 10:51:12;;;;;;;90.00;38.10;;;;;;;6.16;100.00;95482.98;105246;1304;22462;-79
2022/11/16 10:53:48;;;;;;;73.40;36.10;;;;;;;6.15;100.00;95480.35;105200;1291;23124;-79
2022/11/16 10:56:24;;;;;;;82.10;38.20;;;;;;;6.20;100.00;95482.34;105197;1304;22473;-79
2022/11/16 10:59:01;;;;;;;78.00;37.30;;;;;;;6.22;100.00;95480.42;105277;1303;22614;-77
2022/11/16 11:01:39;;;;;;;87.90;37.10;;;;;;;6.27;100.00;95478.25;105272;1288;25312;-79
2022/11/16 11:04:22;;;;;;;73.50;32.00;;;;;;;6.26;100.00;95473.84;105261;1301;22462;-80
2022/11/16 11:06:56;;;;;;;76.10;34.40;;;;;;;6.23;100.00;95473.50;105206;1282;25240;-78
2022/11/16 11:09:31;;;;;;;76.70;34.60;;;;;;;6.25;100.00;95470.70;105281;1278;25626;-78
2022/11/16 11:15:19;;;;;;;69.00;35.40;;;;;;;6.36;100.00;95472.12;105253;1291;25257;-79
2022/11/16 11:18:10;;;;;;;72.80;39.30;;;;;;;6.42;100.00;95468.94;105078;1295;22625;-79
2022/11/16 11:20:44;;;;;;;80.60;36.00;;;;;;;6.50;100.00;95459.69;105117;1303;24218;-78
2022/11/16 11:23:23;;;;;;;77.20;36.70;;;;;;;6.54;100.00;95458.77;105263;1288;22479;-79
2022/11/16 11:25:57;;;;;;;62.20;35.30;;;;;;;6.52;100.00;95455.10;105225;1294;22472;-78
2022/11/16 11:28:30;;;;;;;56.00;35.10;;;;;;;6.51;100.00;95453.05;105199;1288;22615;-79
2022/11/16 11:31:06;;;;;;;63.10;35.90;;;;;;;6.56;100.00;95454.63;105246;1291;22486;-79
2022/11/16 11:33:42;;;;;;;63.50;37.00;;;;;;;6.61;100.00;95456.94;105256;1288;25288;-78
2022/11/16 11:36:19;;;;;;;65.30;38.30;;;;;;;6.63;100.00;95460.56;105189;1293;23770;-77
2022/11/16 11:39:03;;;;;;;62.90;37.70;;;;;;;6.63;100.00;95457.55;105239;1295;22473;-77
2022/11/16 11:41:38;;;;;;;71.80;38.10;;;;;;;6.63;100.00;95454.05;105274;1295;22463;-78
2022/11/16 11:44:18;;;;;;;66.20;38.50;;;;;;;6.65;100.00;95448.38;105199;1303;22970;-78
2022/11/16 11:46:55;;;;;;;81.50;38.90;;;;;;;6.69;100.00;95447.84;105127;1296;22477;-78
2022/11/16 11:49:31;;;;;;;67.40;38.10;;;;;;;6.69;100.00;95449.70;105141;1303;22731;-78
2022/11/16 11:52:09;;;;;;;61.60;36.20;;;;;;;6.69;100.00;95451.59;105240;1303;24258;-78
2022/11/16 11:54:46;;;;;;;111.80;39.10;;;;;;;6.66;100.00;95447.05;105197;1297;22465;-77
2022/11/16 11:57:22;;;;;;;125.50;41.30;;;;;;;6.61;100.00;95445.46;105254;1297;22500;-78
2022/11/16 11:59:54;;;;;;;117.20;38.50;;;;;;;6.58;100.00;95441.08;105269;1288;22595;-78
2022/11/16 12:02:44;;;;;;;93.70;38.30;;;;;;;6.51;100.00;95441.31;105225;1281;22477;-78
2022/11/16 12:05:47;;;;;;;157.00;40.70;;;;;;;6.47;100.00;95437.77;105254;1303;22556;-78
2022/11/16 12:08:34;;;;;;;108.10;37.40;;;;;;;6.42;100.00;95434.77;104445;1303;22464;-78
2022/11/16 12:11:20;;;;;;;104.30;38.50;;;;;;;6.37;100.00;95434.00;105248;1303;22544;-78
2022/11/16 12:14:14;;;;;;;94.90;36.70;;;;;;;6.34;100.00;95429.65;105246;1289;22692;-78
2022/11/16 12:16:55;;;;;;;134.00;39.50;;;;;;;6.30;100.00;95431.89;105237;1303;22605;-78
2022/11/16 12:19:57;;;;;;;115.00;39.90;;;;;;;6.28;100.00;95429.82;105266;1303;22478;-78
2022/11/16 12:22:51;;;;;;;108.40;37.90;;;;;;;6.28;100.00;95426.92;105288;1288;25379;-78
2022/11/16 12:25:27;;;;;;;75.10;36.80;;;;;;;6.31;100.00;95420.89;105249;1289;22459;-78
2022/11/16 12:28:17;;;;;;;85.40;37.70;;;;;;;6.36;100.00;95419.00;105181;1279;22485;-78
2022/11/16 12:30:59;;;;;;;73.60;34.60;;;;;;;6.41;100.00;95417.25;105220;1304;22531;-78
2022/11/16 12:33:43;;;;;;;78.90;35.00;;;;;;;6.43;100.00;95414.33;105248;1303;22464;-78